Terminal Aerodrome Forecast
Issued by NWS

Home | Current Version | Previous Version | Text Only | Print | Product List | Glossary On
Versions: 1 2 3 4 5 6 7 8 9 10 11 12 13 14 15 16
000
FTUS46 KLOX 261100
TAFLGB
TAF
KLGB 261130Z 2612/2712 VRB03KT P6SM BKN180
     FM261500 18006KT P6SM BKN015
     FM261800 19008KT P6SM SCT150
     FM270400 VRB03KT P6SM SCT010 SCT150
     FM270700 VRB03KT P6SM BKN008
     FM271000 VRB03KT 5SM BR OVC006=

USA.gov is the U.S. government's official web portal to all federal, state and local government web resources and services.